Time;durP1;ratioP1;P1;durP2;ratioP2;P2;SDS_P1;SDS_P2;PMS_P1;PMS_P2;Temp;Humidity;BMP_temperature;BMP_pressure;BME280_temperature;BME280_humidity;BME280_pressure;Samples;Min_cycle;Max_cycle;Signal;HPM_P1;HPM_P2
2021/06/14 00:01:33;;;;;;;6.65;2.78;;;;;;;16.69;51.33;101247.00;5085687;28;20036;-74
2021/06/14 00:03:59;;;;;;;6.15;2.40;;;;;;;16.66;51.84;101242.84;5090528;28;20096;-73
2021/06/14 00:06:24;;;;;;;4.18;2.30;;;;;;;16.60;52.40;101259.53;5078828;28;20060;-73
2021/06/14 00:08:49;;;;;;;4.97;2.38;;;;;;;16.47;52.75;101244.09;5081177;28;20123;-73
2021/06/14 00:11:15;;;;;;;3.78;2.17;;;;;;;16.44;52.93;101251.59;5087054;28;20464;-73
2021/06/14 00:13:40;;;;;;;3.92;2.33;;;;;;;16.41;52.74;101246.59;5091905;28;20170;-73
2021/06/14 00:16:07;;;;;;;4.85;2.60;;;;;;;16.34;53.22;101254.47;5083739;28;20055;-74
2021/06/14 00:18:34;;;;;;;5.07;2.90;;;;;;;16.33;53.28;101250.97;5085429;28;20043;-73
2021/06/14 00:21:11;;;;;;;4.57;2.30;;;;;;;16.37;52.60;101247.94;5079219;28;20456;-74
2021/06/14 00:23:37;;;;;;;3.85;2.40;;;;;;;16.39;52.62;101253.97;5075465;28;20032;-73
2021/06/14 00:26:07;;;;;;;5.45;2.75;;;;;;;16.43;52.98;101257.94;5088038;28;20119;-74
2021/06/14 00:28:33;;;;;;;4.43;2.42;;;;;;;16.43;52.72;101256.09;5084836;28;20032;-74
2021/06/14 00:30:58;;;;;;;4.05;2.35;;;;;;;16.39;52.80;101252.09;5079917;28;20047;-74
2021/06/14 00:33:24;;;;;;;5.40;2.53;;;;;;;16.40;52.64;101251.13;5082373;28;20032;-74
2021/06/14 00:35:50;;;;;;;3.95;2.17;;;;;;;16.37;52.79;101254.13;5098091;28;20131;-73
2021/06/14 00:38:16;;;;;;;5.85;2.42;;;;;;;16.34;53.03;101249.97;5086162;28;20028;-74
2021/06/14 00:40:43;;;;;;;5.30;2.30;;;;;;;16.30;53.17;101251.31;5096859;28;20039;-73
2021/06/14 00:43:09;;;;;;;5.43;2.45;;;;;;;16.22;53.88;101253.16;5084895;28;20071;-73
2021/06/14 00:45:39;;;;;;;5.82;2.40;;;;;;;16.27;53.54;101248.16;5086646;28;20619;-74
2021/06/14 00:48:05;;;;;;;6.90;2.95;;;;;;;16.21;53.80;101247.00;5091498;28;20055;-74
2021/06/14 00:50:40;;;;;;;7.65;2.72;;;;;;;16.11;53.97;101254.34;5084599;28;20036;-74
2021/06/14 00:53:07;;;;;;;3.92;2.30;;;;;;;16.08;53.77;101250.19;5084465;28;20040;-74
2021/06/14 00:55:33;;;;;;;5.50;2.47;;;;;;;16.09;54.08;101251.88;5078097;28;20414;-74
2021/06/14 00:57:59;;;;;;;4.43;2.50;;;;;;;16.09;53.86;101245.72;5085704;28;20039;-73
2021/06/14 01:00:24;;;;;;;4.43;2.40;;;;;;;16.07;53.78;101250.38;5076058;28;20041;-73
2021/06/14 01:02:50;;;;;;;4.55;2.60;;;;;;;16.08;53.93;101252.84;5081235;28;20047;-73
2021/06/14 01:05:16;;;;;;;4.63;2.53;;;;;;;16.09;53.84;101246.53;5085367;28;20028;-74
2021/06/14 01:07:41;;;;;;;4.85;2.53;;;;;;;16.07;53.85;101248.53;5084801;28;20036;-74
2021/06/14 01:10:07;;;;;;;4.60;2.30;;;;;;;15.96;54.64;101250.72;5082065;28;20605;-74
2021/06/14 01:12:37;;;;;;;5.60;3.15;;;;;;;15.97;54.62;101252.38;5080277;28;20044;-74
2021/06/14 01:15:14;;;;;;;4.53;2.38;;;;;;;15.92;54.55;101242.22;5075359;28;20040;-74
2021/06/14 01:17:57;;;;;;;5.63;2.53;;;;;;;15.88;54.50;101239.06;5087128;28;20519;-74
2021/06/14 01:20:34;;;;;;;6.20;2.70;;;;;;;15.84;54.30;101237.72;5082863;28;20048;-74
2021/06/14 01:23:36;;;;;;;5.20;2.25;;;;;;;15.85;54.56;101239.41;5087639;28;20508;-74
2021/06/14 01:26:29;;;;;;;4.35;2.30;;;;;;;15.82;54.59;101233.56;5079202;28;20455;-74
2021/06/14 01:29:04;;;;;;;5.10;2.40;;;;;;;15.83;54.54;101236.09;5076516;28;20058;-74
2021/06/14 01:31:35;;;;;;;5.38;2.55;;;;;;;15.86;54.32;101229.56;5085507;28;20036;-75
2021/06/14 01:34:01;;;;;;;4.97;2.30;;;;;;;15.80;55.27;101225.75;5079663;28;20067;-73
2021/06/14 01:36:30;;;;;;;4.47;2.40;;;;;;;15.75;55.95;101228.06;5077652;28;20378;-73
2021/06/14 01:38:56;;;;;;;3.15;2.13;;;;;;;15.73;54.97;101230.09;5084361;28;20044;-74
2021/06/14 01:41:28;;;;;;;4.82;2.40;;;;;;;15.74;55.13;101239.75;5088681;28;20126;-74
2021/06/14 01:43:54;;;;;;;5.90;2.50;;;;;;;15.67;55.35;101236.06;5085486;28;20048;-74
2021/06/14 01:46:24;;;;;;;4.53;2.65;;;;;;;15.63;55.55;101235.53;5084012;28;20029;-74
2021/06/14 01:48:50;;;;;;;4.45;2.55;;;;;;;15.58;55.42;101237.06;5079350;28;20036;-74
2021/06/14 01:51:20;;;;;;;3.80;2.33;;;;;;;15.49;55.96;101236.22;5075596;28;20085;-74
2021/06/14 01:54:02;;;;;;;4.68;2.30;;;;;;;15.45;56.34;101232.25;5075513;28;20036;-74
2021/06/14 01:56:30;;;;;;;4.47;2.33;;;;;;;15.37;56.97;101225.06;5071719;28;20039;-74
2021/06/14 01:58:59;;;;;;;4.25;2.40;;;;;;;15.36;56.79;101234.06;5083528;28;20043;-73
2021/06/14 02:01:25;;;;;;;4.57;2.20;;;;;;;15.38;57.13;101242.72;5076825;28;20041;-74
2021/06/14 02:03:51;;;;;;;3.53;2.25;;;;;;;15.32;56.73;101226.56;5085380;28;20082;-74
2021/06/14 02:06:17;;;;;;;4.53;2.33;;;;;;;15.26;57.25;101225.41;5087196;28;20428;-74
2021/06/14 02:08:43;;;;;;;3.85;2.30;;;;;;;15.20;57.17;101223.38;5082048;28;20029;-74
2021/06/14 02:11:09;;;;;;;3.90;2.33;;;;;;;15.10;58.10;101222.72;5085817;28;20028;-74
2021/06/14 02:13:35;;;;;;;4.13;2.33;;;;;;;14.99;58.83;101229.16;5083482;28;20176;-73
2021/06/14 02:16:01;;;;;;;5.03;2.55;;;;;;;14.95;58.87;101228.69;5082250;28;20098;-73
2021/06/14 02:18:26;;;;;;;4.32;2.75;;;;;;;14.89;59.53;101231.97;5095373;28;20105;-73
2021/06/14 02:20:52;;;;;;;4.50;2.40;;;;;;;14.84;58.80;101218.31;5086530;28;20040;-73
2021/06/14 02:23:18;;;;;;;4.38;2.20;;;;;;;14.84;59.49;101216.50;5081206;28;20032;-72
2021/06/14 02:25:43;;;;;;;6.30;2.45;;;;;;;14.82;59.11;101221.16;5092365;28;20047;-74
2021/06/14 02:28:09;;;;;;;4.00;2.20;;;;;;;14.83;58.70;101216.69;5083636;28;20024;-74
2021/06/14 02:30:34;;;;;;;5.72;2.95;;;;;;;14.85;58.51;101217.34;5083150;28;20028;-73
2021/06/14 02:33:00;;;;;;;4.20;2.63;;;;;;;14.83;59.54;101220.16;5078556;28;20029;-74
2021/06/14 02:35:26;;;;;;;4.97;2.80;;;;;;;14.89;58.91;101208.03;5087537;28;20044;-74
2021/06/14 02:37:56;;;;;;;6.65;2.58;;;;;;;14.83;59.28;101206.03;5084125;28;20047;-73
2021/06/14 02:40:28;;;;;;;4.93;2.63;;;;;;;14.81;59.09;101208.00;5075620;28;20418;-74
2021/06/14 02:42:54;;;;;;;5.38;2.58;;;;;;;14.79;59.20;101208.16;5084378;28;20051;-74
2021/06/14 02:45:23;;;;;;;5.15;2.95;;;;;;;14.82;59.11;101210.50;5084948;28;20063;-74
2021/06/14 02:47:49;;;;;;;5.28;2.95;;;;;;;14.81;59.50;101202.69;5086273;28;20055;-74
2021/06/14 02:50:17;;;;;;;4.90;3.10;;;;;;;14.77;59.51;101196.84;5075745;28;20029;-74
2021/06/14 02:52:48;;;;;;;5.10;2.80;;;;;;;14.77;59.48;101196.84;5076704;28;20035;-74
2021/06/14 02:55:18;;;;;;;5.65;2.63;;;;;;;14.74;60.49;101199.84;5075352;28;20462;-73
2021/06/14 02:57:56;;;;;;;6.57;2.72;;;;;;;14.68;60.05;101189.81;5074619;28;20096;-73
2021/06/14 03:00:26;;;;;;;5.45;2.92;;;;;;;14.68;60.08;101196.97;5074113;28;20044;-73
2021/06/14 03:02:57;;;;;;;5.43;2.80;;;;;;;14.63;60.34;101184.16;5075577;28;20047;-74
2021/06/14 03:05:23;;;;;;;4.93;2.60;;;;;;;14.66;60.15;101186.53;5074789;28;20114;-74
2021/06/14 03:07:48;;;;;;;7.80;2.83;;;;;;;14.62;60.25;101185.16;5067370;28;20048;-74
2021/06/14 03:10:14;;;;;;;7.55;2.85;;;;;;;14.70;59.75;101189.69;5072015;28;20105;-74
2021/06/14 03:12:39;;;;;;;5.22;2.63;;;;;;;14.65;59.99;101184.84;5071592;28;20060;-74
2021/06/14 03:15:06;;;;;;;4.45;2.63;;;;;;;14.68;59.58;101187.16;5074296;28;20040;-74
2021/06/14 03:17:33;;;;;;;5.30;2.58;;;;;;;14.65;59.79;101185.66;5071895;28;20370;-73
2021/06/14 03:20:00;;;;;;;4.50;2.55;;;;;;;14.65;60.10;101180.34;5074001;28;20036;-73
2021/06/14 03:22:26;;;;;;;4.68;2.30;;;;;;;14.64;60.02;101183.19;5071938;28;20044;-74
2021/06/14 03:24:52;;;;;;;5.88;2.78;;;;;;;14.72;59.47;101193.84;5073488;28;20056;-74
2021/06/14 03:27:18;;;;;;;4.03;2.40;;;;;;;14.77;59.50;101191.50;5073617;28;20045;-73
2021/06/14 03:29:46;;;;;;;3.42;2.40;;;;;;;14.71;59.92;101194.03;5075151;28;20071;-72
2021/06/14 03:32:12;;;;;;;4.18;2.85;;;;;;;14.75;59.37;101190.84;5072502;28;20033;-73
2021/06/14 03:34:39;;;;;;;3.88;2.70;;;;;;;14.70;59.50;101187.00;5073272;28;20052;-73
2021/06/14 03:37:05;;;;;;;5.45;2.50;;;;;;;14.74;59.80;101191.03;5072748;28;20075;-73
2021/06/14 03:39:32;;;;;;;6.82;2.63;;;;;;;14.67;60.13;101190.00;5072281;28;20041;-73
2021/06/14 03:41:57;;;;;;;5.57;2.40;;;;;;;14.57;60.90;101177.66;5073872;28;20037;-73
2021/06/14 03:44:22;;;;;;;6.15;2.72;;;;;;;14.57;60.51;101179.50;5071593;28;20600;-73
2021/06/14 03:46:49;;;;;;;4.97;2.70;;;;;;;14.47;60.92;101171.63;5073182;28;20578;-73
2021/06/14 03:49:14;;;;;;;5.45;2.58;;;;;;;14.47;61.01;101166.31;5074356;28;20064;-73
2021/06/14 03:51:40;;;;;;;4.85;2.58;;;;;;;14.38;61.50;101170.75;5073176;28;20074;-73
2021/06/14 03:54:06;;;;;;;4.35;2.40;;;;;;;14.30;61.84;101167.22;5073974;28;20036;-73
2021/06/14 03:56:35;;;;;;;7.60;2.90;;;;;;;14.29;61.76;101168.22;5073891;28;20102;-73
2021/06/14 03:59:01;;;;;;;4.32;2.88;;;;;;;14.26;62.07;101166.72;5074401;28;20574;-74
2021/06/14 04:01:27;;;;;;;5.15;2.40;;;;;;;14.26;61.83;101163.22;5073683;28;20045;-74
2021/06/14 04:06:24;;;;;;;4.53;2.40;;;;;;;14.28;62.96;101159.41;5073313;28;20058;-73
2021/06/14 04:08:49;;;;;;;4.00;2.45;;;;;;;14.33;62.83;101166.91;5072628;28;20036;-74
2021/06/14 04:11:15;;;;;;;3.75;2.45;;;;;;;14.42;61.56;101163.28;5072768;28;20047;-74
2021/06/14 04:13:40;;;;;;;3.72;2.30;;;;;;;14.43;61.60;101159.63;5071881;28;20037;-74
2021/06/14 04:16:06;;;;;;;4.18;2.42;;;;;;;14.45;61.46;101157.66;5071442;28;20140;-74
2021/06/14 04:18:31;;;;;;;4.75;2.33;;;;;;;14.53;62.10;101159.50;5072702;28;20029;-74
2021/06/14 04:20:56;;;;;;;5.05;2.58;;;;;;;14.58;61.07;101166.00;5073771;28;20044;-74
2021/06/14 04:23:22;;;;;;;3.80;2.30;;;;;;;14.70;60.91;101161.22;5073341;28;20032;-74
2021/06/14 04:25:47;;;;;;;4.38;2.40;;;;;;;14.72;60.69;101159.22;5066531;28;20068;-74
2021/06/14 04:28:12;;;;;;;5.15;2.58;;;;;;;14.82;60.33;101161.75;5072098;28;20029;-74
2021/06/14 04:30:38;;;;;;;5.05;2.55;;;;;;;14.90;59.96;101164.44;5070790;28;20051;-74
2021/06/14 04:33:04;;;;;;;4.05;2.38;;;;;;;14.96;59.92;101166.41;5072867;28;20032;-74
2021/06/14 04:35:29;;;;;;;7.22;2.70;;;;;;;15.04;59.54;101161.13;5072097;28;20040;-74
2021/06/14 04:37:55;;;;;;;4.63;2.55;;;;;;;15.06;59.85;101161.78;5072732;28;20478;-74
2021/06/14 04:40:20;;;;;;;7.50;2.47;;;;;;;15.15;59.73;101164.44;5073222;28;20051;-73
2021/06/14 04:42:46;;;;;;;4.63;2.53;;;;;;;15.21;59.67;101156.63;5074128;28;20036;-74
2021/06/14 04:45:13;;;;;;;5.82;2.58;;;;;;;15.28;60.19;101146.13;5075309;28;20029;-73
2021/06/14 04:47:39;;;;;;;4.65;2.30;;;;;;;15.32;59.25;101151.94;5075735;28;21492;-73
2021/06/14 04:50:05;;;;;;;4.88;2.30;;;;;;;15.34;59.44;101150.78;5075156;28;20029;-73
2021/06/14 04:52:31;;;;;;;4.90;2.20;;;;;;;15.42;59.46;101155.28;5074510;28;20056;-74
2021/06/14 04:54:56;;;;;;;3.97;2.38;;;;;;;15.46;59.32;101160.09;5074993;28;20033;-73
2021/06/14 04:57:22;;;;;;;5.07;2.53;;;;;;;15.54;58.89;101156.59;5072415;28;20032;-73
2021/06/14 04:59:47;;;;;;;7.07;2.40;;;;;;;15.61;58.74;101154.94;5076647;28;20060;-73
2021/06/14 05:02:13;;;;;;;4.55;2.63;;;;;;;15.76;58.29;101159.59;5074077;28;20040;-73
2021/06/14 05:04:38;;;;;;;6.55;2.30;;;;;;;15.89;57.81;101167.88;5092035;28;20401;-73
2021/06/14 05:07:04;;;;;;;5.38;2.22;;;;;;;16.02;57.49;101170.03;5074538;28;20048;-73
2021/06/14 05:09:29;;;;;;;5.15;2.55;;;;;;;16.04;58.09;101173.34;5076641;28;20060;-73
2021/06/14 05:11:54;;;;;;;4.07;2.28;;;;;;;16.17;57.20;101173.63;5075086;28;20039;-74
2021/06/14 05:14:20;;;;;;;4.55;2.35;;;;;;;16.25;57.75;101170.09;5074787;28;20400;-73
2021/06/14 05:16:45;;;;;;;3.63;1.90;;;;;;;16.29;58.69;101164.25;5075592;28;20389;-73
2021/06/14 05:19:11;;;;;;;3.53;2.10;;;;;;;16.25;57.90;101165.59;5074526;28;20400;-73
2021/06/14 05:21:37;;;;;;;5.22;2.40;;;;;;;16.19;58.82;101176.97;5075251;28;20049;-73
2021/06/14 05:24:03;;;;;;;4.07;2.40;;;;;;;16.09;59.72;101177.16;5075718;28;20044;-73
2021/06/14 05:26:29;;;;;;;3.67;1.90;;;;;;;16.13;59.15;101173.13;5074460;28;20035;-73
2021/06/14 05:28:54;;;;;;;4.25;2.22;;;;;;;16.16;59.09;101165.78;5076087;28;20033;-73
2021/06/14 05:31:19;;;;;;;5.35;2.53;;;;;;;16.33;58.44;101172.75;5076526;28;20065;-73
2021/06/14 05:33:45;;;;;;;4.50;2.30;;;;;;;16.36;58.57;101164.38;5075650;28;20032;-73
2021/06/14 05:36:10;;;;;;;5.03;2.33;;;;;;;16.34;57.73;101169.06;5072664;28;20135;-73
2021/06/14 05:38:36;;;;;;;3.40;2.30;;;;;;;16.39;58.03;101160.53;5074171;28;20489;-73
2021/06/14 05:41:01;;;;;;;3.53;1.98;;;;;;;16.57;58.08;101158.44;5074727;28;20368;-74
2021/06/14 05:43:27;;;;;;;4.80;2.35;;;;;;;16.88;58.32;101161.13;5075240;28;20028;-73
2021/06/14 05:45:52;;;;;;;4.00;2.30;;;;;;;16.94;57.11;101151.53;5073962;28;20041;-73
2021/06/14 05:48:18;;;;;;;4.88;2.50;;;;;;;17.27;57.26;101157.47;5074765;28;20032;-73
2021/06/14 05:50:43;;;;;;;3.90;2.40;;;;;;;17.54;55.88;101158.75;5072772;28;20424;-73
2021/06/14 05:53:09;;;;;;;4.50;2.30;;;;;;;18.02;54.81;101147.72;5075011;28;20501;-73
2021/06/14 05:55:35;;;;;;;4.93;1.90;;;;;;;18.40;54.92;101153.75;5073316;28;20039;-73
2021/06/14 05:58:00;;;;;;;3.92;2.30;;;;;;;18.62;52.27;101153.81;5074656;28;20040;-73
2021/06/14 06:00:26;;;;;;;5.53;2.20;;;;;;;18.97;52.29;101152.09;5072816;28;20417;-73
2021/06/14 06:02:51;;;;;;;3.63;2.10;;;;;;;19.28;51.40;101158.97;5073945;28;20166;-74
2021/06/14 06:05:16;;;;;;;3.38;1.70;;;;;;;19.72;52.88;101165.97;5074335;28;20032;-72
2021/06/14 06:07:42;;;;;;;4.20;2.10;;;;;;;20.42;47.45;101168.56;5074048;28;20513;-74
2021/06/14 06:10:11;;;;;;;5.00;2.30;;;;;;;20.95;46.15;101161.53;5073179;28;20029;-73
2021/06/14 06:12:38;;;;;;;2.67;1.77;;;;;;;21.45;48.85;101155.75;5071023;28;20047;-73
2021/06/14 06:15:06;;;;;;;3.60;1.77;;;;;;;21.89;47.45;101158.81;5073261;28;20029;-73
2021/06/14 06:17:31;;;;;;;4.47;2.03;;;;;;;22.28;43.65;101163.25;5071824;28;20075;-72
2021/06/14 06:19:57;;;;;;;4.65;2.08;;;;;;;22.68;41.90;101154.97;5071874;28;20052;-74
2021/06/14 06:22:23;;;;;;;3.35;1.85;;;;;;;22.58;39.65;101154.63;5070960;28;20047;-72
2021/06/14 06:24:48;;;;;;;3.97;1.95;;;;;;;22.41;40.28;101157.00;5070560;28;20032;-72
2021/06/14 06:27:13;;;;;;;4.80;1.90;;;;;;;22.60;40.16;101150.66;5070664;28;20055;-72
2021/06/14 06:29:39;;;;;;;3.47;1.95;;;;;;;22.87;39.40;101158.59;5069993;28;20428;-72
2021/06/14 06:32:05;;;;;;;3.55;1.90;;;;;;;23.06;39.04;101163.03;5069669;28;20040;-71
2021/06/14 06:34:30;;;;;;;4.45;2.28;;;;;;;23.46;38.51;101159.19;5069647;28;20044;-72
2021/06/14 06:36:56;;;;;;;3.63;1.90;;;;;;;23.71;37.82;101162.66;5069974;28;20127;-72
2021/06/14 06:39:21;;;;;;;3.97;1.50;;;;;;;24.07;37.93;101162.94;5068628;28;20182;-71
2021/06/14 06:41:47;;;;;;;4.88;1.80;;;;;;;24.34;38.21;101152.66;5069948;28;20044;-71
2021/06/14 06:44:12;;;;;;;3.42;1.83;;;;;;;24.47;36.47;101151.66;5069532;28;20029;-71
2021/06/14 06:46:38;;;;;;;4.05;2.00;;;;;;;24.59;36.35;101155.22;5068566;28;20028;-72
2021/06/14 06:49:03;;;;;;;4.55;2.10;;;;;;;24.96;36.88;101155.94;5070473;28;20033;-72
2021/06/14 06:51:29;;;;;;;2.97;1.73;;;;;;;25.46;35.98;101153.88;5069511;28;20058;-72
2021/06/14 06:54:15;;;;;;;3.45;1.90;;;;;;;25.81;33.98;101152.00;5070673;28;20090;-72
2021/06/14 06:56:44;;;;;;;3.15;1.50;;;;;;;26.07;35.85;101155.25;5069109;28;20389;-72
2021/06/14 06:59:11;;;;;;;5.30;2.00;;;;;;;26.24;34.93;101141.78;5069649;28;20044;-72
2021/06/14 07:01:37;;;;;;;2.53;1.50;;;;;;;26.32;35.53;101141.41;5068492;28;20286;-72
2021/06/14 07:04:03;;;;;;;3.67;1.60;;;;;;;26.80;34.72;101139.31;5066958;28;20028;-72
2021/06/14 07:06:28;;;;;;;3.33;1.77;;;;;;;26.71;33.50;101144.31;5068404;28;20184;-72
2021/06/14 07:08:56;;;;;;;5.78;1.70;;;;;;;26.52;30.89;101146.38;5069911;28;20342;-72
2021/06/14 07:11:21;;;;;;;6.88;2.00;;;;;;;26.72;31.63;101153.28;5068667;28;20052;-72
2021/06/14 07:13:46;;;;;;;2.35;1.40;;;;;;;26.93;31.53;101146.31;5069488;28;20036;-72
2021/06/14 07:16:11;;;;;;;4.70;1.80;;;;;;;26.80;32.29;101142.84;5068934;28;20028;-72
2021/06/14 07:18:37;;;;;;;5.72;2.10;;;;;;;26.39;31.78;101144.78;5070156;28;20479;-71
2021/06/14 07:21:02;;;;;;;3.03;1.60;;;;;;;26.19;32.39;101136.25;5069074;28;20036;-72
2021/06/14 07:23:27;;;;;;;2.70;1.40;;;;;;;26.92;32.46;101129.22;5069020;28;20302;-72
2021/06/14 07:25:53;;;;;;;4.25;1.90;;;;;;;27.37;30.16;101131.03;5069715;28;20108;-73
2021/06/14 07:28:18;;;;;;;3.83;1.80;;;;;;;26.80;31.31;101129.28;5070309;28;20036;-72
2021/06/14 07:30:43;;;;;;;3.78;1.80;;;;;;;26.82;30.67;101134.47;5069796;28;20328;-72
2021/06/14 07:33:09;;;;;;;3.03;1.52;;;;;;;26.78;31.67;101134.13;5070531;28;20068;-73
2021/06/14 07:35:36;;;;;;;3.70;1.80;;;;;;;26.87;31.09;101140.00;5069353;28;20086;-72
2021/06/14 07:38:03;;;;;;;4.22;1.70;;;;;;;27.42;30.72;101135.72;5070306;28;20060;-73
2021/06/14 07:40:28;;;;;;;3.05;1.80;;;;;;;27.48;29.90;101140.16;5070226;28;20035;-73
2021/06/14 07:42:53;;;;;;;4.07;1.70;;;;;;;27.29;30.15;101143.16;5070294;28;20120;-73
2021/06/14 07:45:24;;;;;;;4.18;2.00;;;;;;;27.01;30.65;101137.78;5070165;28;20197;-72
2021/06/14 07:47:52;;;;;;;3.55;1.85;;;;;;;26.99;30.44;101145.34;5085897;28;20481;-73
2021/06/14 07:50:19;;;;;;;3.08;1.70;;;;;;;27.07;30.45;101139.50;5069849;28;20029;-73
2021/06/14 07:52:44;;;;;;;3.30;1.60;;;;;;;27.42;29.34;101141.97;5070514;28;20021;-73
2021/06/14 07:55:11;;;;;;;3.88;1.75;;;;;;;27.54;28.97;101139.97;5070168;28;20086;-72
2021/06/14 07:57:36;;;;;;;3.63;1.70;;;;;;;27.26;30.35;101140.09;5057745;28;20033;-72
2021/06/14 08:00:04;;;;;;;2.47;1.30;;;;;;;27.90;29.50;101140.47;5060740;28;20035;-73
2021/06/14 08:02:30;;;;;;;4.25;1.70;;;;;;;28.34;28.31;101148.63;5069308;28;20028;-72
2021/06/14 08:04:55;;;;;;;3.90;2.08;;;;;;;28.86;28.20;101144.53;5069189;28;20136;-73
2021/06/14 08:07:20;;;;;;;3.42;2.15;;;;;;;28.51;27.31;101140.41;5068448;28;20036;-72
2021/06/14 08:09:48;;;;;;;3.67;1.80;;;;;;;27.62;28.39;101136.00;5070338;28;20044;-72
2021/06/14 08:12:13;;;;;;;3.05;1.83;;;;;;;27.81;28.42;101135.72;5069843;28;20033;-72
2021/06/14 08:14:38;;;;;;;3.22;1.75;;;;;;;28.08;28.18;101130.34;5069632;28;20097;-72
2021/06/14 08:17:04;;;;;;;4.07;1.70;;;;;;;28.16;29.04;101132.66;5072446;28;20123;-72
2021/06/14 08:22:22;;;;;;;2.63;1.63;;;;;;;28.53;27.85;101129.25;5073038;28;20104;-72
2021/06/14 08:25:07;;;;;;;3.78;1.80;;;;;;;28.86;28.66;101124.66;5072937;28;20041;-72
2021/06/14 08:27:35;;;;;;;3.55;1.73;;;;;;;29.27;26.32;101134.00;5058879;28;20033;-73
2021/06/14 08:30:02;;;;;;;3.83;1.92;;;;;;;29.02;26.47;101112.81;5072976;28;20413;-73
2021/06/14 08:32:28;;;;;;;3.63;1.52;;;;;;;28.94;27.49;101119.56;5073368;28;20044;-73
2021/06/14 08:34:53;;;;;;;4.20;1.50;;;;;;;28.73;27.06;101106.88;5071481;28;20720;-72
2021/06/14 08:37:18;;;;;;;2.85;1.55;;;;;;;28.94;27.47;101111.38;5072710;28;20430;-74
2021/06/14 08:39:44;;;;;;;2.97;1.63;;;;;;;28.68;26.67;101102.19;5072342;28;20086;-73
2021/06/14 08:42:09;;;;;;;2.88;1.73;;;;;;;28.96;27.09;101106.50;5072008;28;20028;-73
2021/06/14 08:44:36;;;;;;;4.82;1.60;;;;;;;29.77;25.85;101118.22;5072580;28;20056;-73
2021/06/14 08:47:03;;;;;;;2.95;1.55;;;;;;;29.61;26.12;101111.84;5072740;28;20025;-72
2021/06/14 08:49:29;;;;;;;3.42;1.77;;;;;;;29.57;25.80;101108.81;5073016;28;20028;-73
2021/06/14 08:51:54;;;;;;;2.63;1.55;;;;;;;29.45;26.09;101108.22;5071822;28;20497;-72
2021/06/14 08:54:20;;;;;;;3.05;1.65;;;;;;;29.16;26.21;101105.84;5071257;28;20039;-72
2021/06/14 08:56:45;;;;;;;2.65;1.73;;;;;;;29.57;25.92;101099.84;5067959;28;20037;-72
2021/06/14 08:59:11;;;;;;;2.40;1.60;;;;;;;29.57;26.09;101095.19;5068613;28;20505;-72
2021/06/14 09:01:37;;;;;;;4.03;2.03;;;;;;;29.68;26.24;101098.84;5070880;28;20287;-72
2021/06/14 09:04:02;;;;;;;3.40;1.70;;;;;;;29.97;25.96;101092.94;5071538;28;20033;-72
2021/06/14 09:06:27;;;;;;;3.30;1.67;;;;;;;29.64;26.51;101090.31;5070710;28;20045;-72
2021/06/14 09:09:02;;;;;;;3.03;1.70;;;;;;;29.63;25.80;101079.72;5069863;28;20045;-72
2021/06/14 09:11:30;;;;;;;5.35;1.80;;;;;;;29.46;26.62;101079.88;5071283;28;20423;-72
2021/06/14 09:13:58;;;;;;;3.15;1.65;;;;;;;28.89;27.26;101081.41;5072041;28;20028;-72
2021/06/14 09:16:27;;;;;;;3.25;1.70;;;;;;;28.78;27.86;101085.13;5070175;28;20029;-72
2021/06/14 09:18:53;;;;;;;3.72;1.73;;;;;;;29.16;27.23;101080.53;5072683;28;20090;-73
2021/06/14 09:21:18;;;;;;;2.58;1.50;;;;;;;28.48;28.07;101072.88;5072007;28;20032;-72
2021/06/14 09:23:48;;;;;;;3.90;1.35;;;;;;;28.58;29.05;101064.81;5072093;28;20075;-72
2021/06/14 09:26:36;;;;;;;2.90;1.50;;;;;;;28.85;27.34;101060.41;5071655;28;20186;-72
2021/06/14 09:29:06;;;;;;;4.18;1.40;;;;;;;28.86;28.38;101062.03;5064395;28;20529;-72
2021/06/14 09:31:40;;;;;;;;;;;;;;;29.19;28.34;101053.56;5072004;28;20094;-72
2021/06/14 09:34:07;;;;;;;2.50;1.30;;;;;;;29.61;28.03;101044.53;5071155;28;20443;-73
2021/06/14 09:36:33;;;;;;;3.67;1.60;;;;;;;29.67;27.08;101050.03;5070683;28;20036;-72
2021/06/14 09:39:15;;;;;;;2.90;1.48;;;;;;;29.21;27.80;101045.97;5071310;28;20047;-72
2021/06/14 09:41:47;;;;;;;1.90;1.30;;;;;;;29.29;28.05;101041.09;5071039;28;20452;-72
2021/06/14 09:44:12;;;;;;;3.00;1.63;;;;;;;29.39;28.39;101041.16;5052176;28;20510;-72
2021/06/14 09:46:38;;;;;;;3.28;1.83;;;;;;;29.19;30.26;101039.97;5071566;28;20055;-72
2021/06/14 09:49:05;;;;;;;2.97;1.58;;;;;;;29.09;28.10;101037.19;5071373;28;20089;-72
2021/06/14 09:51:32;;;;;;;3.47;1.38;;;;;;;28.94;27.15;101040.59;5071763;28;20059;-72
2021/06/14 09:53:58;;;;;;;2.55;1.40;;;;;;;29.02;26.67;101042.81;5062682;28;20514;-72
2021/06/14 09:56:26;;;;;;;3.05;1.40;;;;;;;28.99;26.23;101042.53;5063207;28;20064;-72
2021/06/14 09:58:54;;;;;;;2.92;1.60;;;;;;;29.23;25.20;101042.19;5071354;28;20040;-73
2021/06/14 10:01:31;;;;;;;4.38;1.30;;;;;;;28.02;28.21;101036.25;5067384;28;20056;-71
2021/06/14 10:03:58;;;;;;;2.42;1.50;;;;;;;28.25;28.39;101040.56;5070881;28;20036;-72
2021/06/14 10:06:33;;;;;;;3.63;1.40;;;;;;;28.44;28.62;101039.09;5070939;28;20036;-72
2021/06/14 10:08:59;;;;;;;4.00;1.65;;;;;;;28.89;27.23;101031.56;5069883;28;20505;-72
2021/06/14 10:11:31;;;;;;;2.45;1.25;;;;;;;28.90;28.77;101033.22;5070947;28;20056;-72
2021/06/14 10:14:07;;;;;;;2.90;1.42;;;;;;;28.99;26.71;101040.63;5071867;28;20501;-72
2021/06/14 10:16:36;;;;;;;3.40;1.67;;;;;;;28.87;25.40;101034.56;5073300;28;20029;-73
2021/06/14 10:19:01;;;;;;;2.58;1.33;;;;;;;28.22;27.67;101027.44;5071522;28;20036;-72
2021/06/14 10:21:29;;;;;;;4.03;1.60;;;;;;;28.58;27.18;101034.09;5069219;28;20041;-72
2021/06/14 10:23:56;;;;;;;4.20;1.70;;;;;;;28.12;26.91;101029.00;5070746;28;20036;-72
2021/06/14 10:26:29;;;;;;;2.60;1.30;;;;;;;28.15;28.47;101022.22;5070208;28;20028;-72
2021/06/14 10:28:55;;;;;;;2.53;1.30;;;;;;;28.26;27.63;101018.53;5070995;28;20060;-72
2021/06/14 10:31:21;;;;;;;2.42;1.27;;;;;;;28.61;27.48;101024.56;5070132;28;20119;-72
2021/06/14 10:33:51;;;;;;;2.22;1.30;;;;;;;28.90;27.79;101006.81;5069959;28;20044;-72
2021/06/14 10:36:22;;;;;;;4.35;1.58;;;;;;;29.04;26.77;101011.81;5069638;28;20041;-72
2021/06/14 10:38:49;;;;;;;;;;;;;;;29.03;28.28;101008.25;5069860;28;20047;-72
2021/06/14 10:41:14;;;;;;;3.28;1.40;;;;;;;29.00;26.97;100998.69;5069822;28;19928;-72
2021/06/14 10:43:40;;;;;;;2.17;1.30;;;;;;;29.06;26.86;100996.84;5070694;28;20047;-71
2021/06/14 10:46:10;;;;;;;3.05;1.38;;;;;;;29.04;26.12;100992.75;5070560;28;20074;-72
2021/06/14 10:48:36;;;;;;;2.50;1.48;;;;;;;28.63;28.97;100984.28;5069677;28;20178;-71
2021/06/14 10:51:10;;;;;;;3.38;1.40;;;;;;;28.78;27.70;100978.97;5070402;28;20056;-71
2021/06/14 10:53:35;;;;;;;2.15;1.38;;;;;;;28.41;29.04;100981.66;5070525;28;20497;-71
2021/06/14 10:56:02;;;;;;;3.03;1.52;;;;;;;28.73;27.41;100976.22;5069869;28;20040;-72
2021/06/14 10:58:30;;;;;;;3.22;1.60;;;;;;;28.54;27.51;100967.66;5071128;28;20044;-71
2021/06/14 11:01:05;;;;;;;2.97;1.50;;;;;;;28.80;27.67;100971.38;5062500;28;20536;-72
2021/06/14 11:03:47;;;;;;;2.67;1.42;;;;;;;28.98;27.55;100961.94;5065824;28;20040;-71
2021/06/14 11:06:27;;;;;;;4.25;1.65;;;;;;;29.25;25.78;100952.81;5069338;28;20039;-72
2021/06/14 11:09:07;;;;;;;2.78;1.30;;;;;;;28.96;25.89;100953.19;5068611;28;20119;-72
2021/06/14 11:11:49;;;;;;;3.47;1.60;;;;;;;28.90;29.88;100952.38;5069034;28;20117;-71
2021/06/14 11:14:33;;;;;;;2.95;1.50;;;;;;;28.93;28.18;100951.00;5068976;28;20056;-71
2021/06/14 11:17:01;;;;;;;2.63;1.60;;;;;;;28.86;27.53;100948.53;5049733;28;20039;-71
2021/06/14 11:19:34;;;;;;;2.28;1.20;;;;;;;28.92;28.50;100947.47;5065237;28;20037;-71
2021/06/14 11:22:00;;;;;;;3.00;1.52;;;;;;;28.97;28.98;100946.69;5070131;28;20085;-71
2021/06/14 11:24:36;;;;;;;2.88;1.50;;;;;;;28.89;29.72;100939.00;5069313;28;20127;-71
2021/06/14 11:27:02;;;;;;;3.33;1.80;;;;;;;28.77;28.42;100925.59;5068852;28;20085;-71
2021/06/14 11:29:27;;;;;;;2.10;1.40;;;;;;;28.87;28.20;100924.88;5069402;28;20044;-71
2021/06/14 11:32:02;;;;;;;2.70;1.50;;;;;;;28.69;30.39;100921.47;5070187;28;20082;-71
2021/06/14 11:34:40;;;;;;;3.38;1.73;;;;;;;28.81;28.19;100932.16;5070251;28;20036;-72